TAF KUNV
AMD KUNV 090911Z 0909/1006 25003KT P6SM SCT045 FM092000 16005KT P6SM OVC100=
METAR KUNV
WC KUNV
WS KUNV
WV KUNV